KMPV/MPV METAR and TAF weather

Enter ICAO airport designator
Station Type Date Time Source
KMPV METAR 2021/07/30 06:59 UTC NOAA

KMPV 300659Z AUTO 00000KT 1/4SM FG VV001 16/14 A2974 RMK AO2 T01560144


Station Type Date Time Source
KMPV Decoded METAR 2021/07/30 06:59 UTC NOAA

KNAPP STATE AIRPORT, VT, United States (KMPV) 44-12N 072-34W 343M
Jul 30, 2021 - 02:59 AM EDT / 2021.07.30 0659 UTC
Wind: Calm:0
Visibility: 1/4 mile(s):0
Sky conditions: obscured
Weather: fog
Temperature: 60.1 F (15.6 C)
Dew Point: 57.9 F (14.4 C)
Relative Humidity: 92%
Pressure (altimeter): 29.74 in. Hg (1007 hPa)
ob: KMPV 300659Z AUTO 00000KT 1/4SM FG VV001 16/14 A2974 RMK AO2 T01560144
cycle: 7

Station Type Date Time Source
KMPV TAF 2021/07/30 06:30 UTC NOAA

TAF KMPV 300527Z 3006/3106 00000KT P6SM VCSH BKN015
TEMPO 3006/3008 P6SM BKN007 OVC015
FM300800 VRB03KT P6SM OVC050
FM301300 31007KT P6SM VCSH OVC026
FM301700 31011G18KT P6SM BKN035

Example: see airport list